sensor_id;sensor_type;location;lat;lon;timestamp;temperature;humidity
43015;DHT22;28637;50.554;7.032;2023-07-22T00:02:54;12.60;99.90
43015;DHT22;28637;50.554;7.032;2023-07-22T00:07:54;12.50;99.90
43015;DHT22;28637;50.554;7.032;2023-07-22T00:12:55;12.40;99.90
43015;DHT22;28637;50.554;7.032;2023-07-22T00:17:56;12.40;99.90
43015;DHT22;28637;50.554;7.032;2023-07-22T00:22:56;12.40;99.90
43015;DHT22;28637;50.554;7.032;2023-07-22T00:27:58;12.30;99.90
43015;DHT22;28637;50.554;7.032;2023-07-22T00:32:58;12.30;99.90
43015;DHT22;28637;50.554;7.032;2023-07-22T00:38:00;12.20;99.90
43015;DHT22;28637;50.554;7.032;2023-07-22T00:43:02;12.00;99.90
43015;DHT22;28637;50.554;7.032;2023-07-22T00:48:05;11.90;99.90
43015;DHT22;28637;50.554;7.032;2023-07-22T00:53:06;11.90;99.90
43015;DHT22;28637;50.554;7.032;2023-07-22T00:58:06;11.90;99.90
43015;DHT22;28637;50.554;7.032;2023-07-22T01:03:08;12.00;99.90
43015;DHT22;28637;50.554;7.032;2023-07-22T01:08:08;12.00;99.90
43015;DHT22;28637;50.554;7.032;2023-07-22T01:13:09;12.00;99.90
43015;DHT22;28637;50.554;7.032;2023-07-22T01:18:10;11.90;99.90
43015;DHT22;28637;50.554;7.032;2023-07-22T01:23:11;11.90;99.90
43015;DHT22;28637;50.554;7.032;2023-07-22T01:28:12;11.80;99.90
43015;DHT22;28637;50.554;7.032;2023-07-22T01:33:12;11.70;99.90
43015;DHT22;28637;50.554;7.032;2023-07-22T01:38:13;11.60;99.90
43015;DHT22;28637;50.554;7.032;2023-07-22T01:43:14;11.60;99.90
43015;DHT22;28637;50.554;7.032;2023-07-22T01:48:14;11.70;99.90
43015;DHT22;28637;50.554;7.032;2023-07-22T01:53:15;11.60;99.90
43015;DHT22;28637;50.554;7.032;2023-07-22T01:58:16;11.70;99.90
43015;DHT22;28637;50.554;7.032;2023-07-22T02:03:17;11.80;99.90
43015;DHT22;28637;50.554;7.032;2023-07-22T02:08:17;11.80;99.90
43015;DHT22;28637;50.554;7.032;2023-07-22T02:13:18;11.70;99.90
43015;DHT22;28637;50.554;7.032;2023-07-22T02:18:19;11.60;99.90
43015;DHT22;28637;50.554;7.032;2023-07-22T02:23:20;11.60;99.90
43015;DHT22;28637;50.554;7.032;2023-07-22T02:28:21;11.70;99.90
43015;DHT22;28637;50.554;7.032;2023-07-22T02:33:24;11.60;99.90
43015;DHT22;28637;50.554;7.032;2023-07-22T02:38:24;11.60;99.90
43015;DHT22;28637;50.554;7.032;2023-07-22T02:43:25;11.50;99.90
43015;DHT22;28637;50.554;7.032;2023-07-22T02:48:25;11.50;99.90
43015;DHT22;28637;50.554;7.032;2023-07-22T02:53:26;11.50;99.90
43015;DHT22;28637;50.554;7.032;2023-07-22T02:58:27;11.60;99.90
43015;DHT22;28637;50.554;7.032;2023-07-22T03:03:27;11.60;99.90
43015;DHT22;28637;50.554;7.032;2023-07-22T03:08:28;11.30;99.90
43015;DHT22;28637;50.554;7.032;2023-07-22T03:13:29;11.10;99.90
43015;DHT22;28637;50.554;7.032;2023-07-22T03:18:30;11.00;99.90
43015;DHT22;28637;50.554;7.032;2023-07-22T03:23:31;11.10;99.90
43015;DHT22;28637;50.554;7.032;2023-07-22T03:28:32;11.10;99.90
43015;DHT22;28637;50.554;7.032;2023-07-22T03:33:33;11.20;99.90
43015;DHT22;28637;50.554;7.032;2023-07-22T03:38:34;11.10;99.90
43015;DHT22;28637;50.554;7.032;2023-07-22T03:43:35;11.10;99.90
43015;DHT22;28637;50.554;7.032;2023-07-22T03:48:36;11.10;99.90
43015;DHT22;28637;50.554;7.032;2023-07-22T03:53:36;11.10;99.90
43015;DHT22;28637;50.554;7.032;2023-07-22T03:58:37;11.20;99.90
43015;DHT22;28637;50.554;7.032;2023-07-22T04:03:38;11.20;99.90
43015;DHT22;28637;50.554;7.032;2023-07-22T04:08:38;11.10;99.90
43015;DHT22;28637;50.554;7.032;2023-07-22T04:13:39;11.10;99.90
43015;DHT22;28637;50.554;7.032;2023-07-22T04:18:39;11.10;99.90
43015;DHT22;28637;50.554;7.032;2023-07-22T04:23:40;11.10;99.90
43015;DHT22;28637;50.554;7.032;2023-07-22T04:28:41;11.10;99.90
43015;DHT22;28637;50.554;7.032;2023-07-22T04:33:41;11.10;99.90
43015;DHT22;28637;50.554;7.032;2023-07-22T04:38:42;11.00;99.90
43015;DHT22;28637;50.554;7.032;2023-07-22T04:43:43;11.10;99.90
43015;DHT22;28637;50.554;7.032;2023-07-22T04:48:43;11.20;99.90
43015;DHT22;28637;50.554;7.032;2023-07-22T04:53:44;11.30;99.90
43015;DHT22;28637;50.554;7.032;2023-07-22T04:58:45;11.50;99.90
43015;DHT22;28637;50.554;7.032;2023-07-22T05:03:45;11.60;99.90
43015;DHT22;28637;50.554;7.032;2023-07-22T05:08:46;11.80;99.90
43015;DHT22;28637;50.554;7.032;2023-07-22T05:13:47;11.80;99.90
43015;DHT22;28637;50.554;7.032;2023-07-22T05:18:47;12.10;99.90
43015;DHT22;28637;50.554;7.032;2023-07-22T05:23:48;12.20;99.90
43015;DHT22;28637;50.554;7.032;2023-07-22T05:28:49;12.40;99.90
43015;DHT22;28637;50.554;7.032;2023-07-22T05:33:50;12.60;99.90
43015;DHT22;28637;50.554;7.032;2023-07-22T05:38:50;12.70;99.90
43015;DHT22;28637;50.554;7.032;2023-07-22T05:43:51;12.90;99.90
43015;DHT22;28637;50.554;7.032;2023-07-22T05:48:52;13.10;99.90
43015;DHT22;28637;50.554;7.032;2023-07-22T05:53:52;13.30;99.90
43015;DHT22;28637;50.554;7.032;2023-07-22T05:58:53;13.40;99.90
43015;DHT22;28637;50.554;7.032;2023-07-22T06:03:53;13.40;99.90
43015;DHT22;28637;50.554;7.032;2023-07-22T06:08:54;13.70;99.90
43015;DHT22;28637;50.554;7.032;2023-07-22T06:13:55;14.00;99.90
43015;DHT22;28637;50.554;7.032;2023-07-22T06:18:56;14.60;99.90
43015;DHT22;28637;50.554;7.032;2023-07-22T06:23:56;15.00;99.90
43015;DHT22;28637;50.554;7.032;2023-07-22T06:28:57;15.10;99.90
43015;DHT22;28637;50.554;7.032;2023-07-22T06:33:58;15.40;99.90
43015;DHT22;28637;50.554;7.032;2023-07-22T06:39:03;15.60;99.90
43015;DHT22;28637;50.554;7.032;2023-07-22T06:44:04;15.90;99.90
43015;DHT22;28637;50.554;7.032;2023-07-22T06:49:05;16.00;99.90
43015;DHT22;28637;50.554;7.032;2023-07-22T06:54:06;16.30;99.90
43015;DHT22;28637;50.554;7.032;2023-07-22T06:59:06;16.50;99.90
43015;DHT22;28637;50.554;7.032;2023-07-22T07:04:07;16.50;99.90
43015;DHT22;28637;50.554;7.032;2023-07-22T07:09:08;16.30;99.90
43015;DHT22;28637;50.554;7.032;2023-07-22T07:14:08;16.40;99.90
43015;DHT22;28637;50.554;7.032;2023-07-22T07:19:09;16.40;99.90
43015;DHT22;28637;50.554;7.032;2023-07-22T07:24:10;16.60;99.90
43015;DHT22;28637;50.554;7.032;2023-07-22T07:29:11;16.80;99.90
43015;DHT22;28637;50.554;7.032;2023-07-22T07:34:12;17.00;99.90
43015;DHT22;28637;50.554;7.032;2023-07-22T07:39:12;17.30;99.90
43015;DHT22;28637;50.554;7.032;2023-07-22T07:44:13;17.60;99.90
43015;DHT22;28637;50.554;7.032;2023-07-22T07:49:14;17.80;99.90
43015;DHT22;28637;50.554;7.032;2023-07-22T07:54:15;18.20;99.90
43015;DHT22;28637;50.554;7.032;2023-07-22T07:59:16;18.40;99.90
43015;DHT22;28637;50.554;7.032;2023-07-22T08:04:17;18.70;99.90
43015;DHT22;28637;50.554;7.032;2023-07-22T08:09:18;18.90;99.90
43015;DHT22;28637;50.554;7.032;2023-07-22T08:14:21;19.00;99.90
43015;DHT22;28637;50.554;7.032;2023-07-22T08:19:23;19.40;99.90
43015;DHT22;28637;50.554;7.032;2023-07-22T08:24:23;19.50;99.90
43015;DHT22;28637;50.554;7.032;2023-07-22T08:29:24;19.80;99.90
43015;DHT22;28637;50.554;7.032;2023-07-22T08:34:25;19.90;99.90
43015;DHT22;28637;50.554;7.032;2023-07-22T08:39:26;19.90;99.90
43015;DHT22;28637;50.554;7.032;2023-07-22T08:44:29;19.90;99.90
43015;DHT22;28637;50.554;7.032;2023-07-22T08:49:34;20.10;99.90
43015;DHT22;28637;50.554;7.032;2023-07-22T08:54:36;20.30;99.30
43015;DHT22;28637;50.554;7.032;2023-07-22T08:59:38;20.50;98.60
43015;DHT22;28637;50.554;7.032;2023-07-22T09:04:39;20.50;99.00
43015;DHT22;28637;50.554;7.032;2023-07-22T09:09:47;20.60;99.70
43015;DHT22;28637;50.554;7.032;2023-07-22T09:14:50;20.40;97.00
43015;DHT22;28637;50.554;7.032;2023-07-22T09:19:54;20.40;94.70
43015;DHT22;28637;50.554;7.032;2023-07-22T09:25:18;20.40;94.90
43015;DHT22;28637;50.554;7.032;2023-07-22T09:30:34;20.60;96.20
43015;DHT22;28637;50.554;7.032;2023-07-22T09:35:46;20.90;94.40
43015;DHT22;28637;50.554;7.032;2023-07-22T09:40:47;21.10;92.30
43015;DHT22;28637;50.554;7.032;2023-07-22T09:45:48;21.20;91.00
43015;DHT22;28637;50.554;7.032;2023-07-22T09:50:58;21.00;89.40
43015;DHT22;28637;50.554;7.032;2023-07-22T09:56:04;21.30;91.50
43015;DHT22;28637;50.554;7.032;2023-07-22T10:01:05;21.60;88.90
43015;DHT22;28637;50.554;7.032;2023-07-22T10:06:08;21.60;86.90
43015;DHT22;28637;50.554;7.032;2023-07-22T10:11:09;21.50;88.20
43015;DHT22;28637;50.554;7.032;2023-07-22T10:16:12;21.30;86.80
43015;DHT22;28637;50.554;7.032;2023-07-22T10:21:13;21.50;88.40
43015;DHT22;28637;50.554;7.032;2023-07-22T10:26:15;21.50;85.30
43015;DHT22;28637;50.554;7.032;2023-07-22T10:31:17;21.30;86.20
43015;DHT22;28637;50.554;7.032;2023-07-22T10:36:19;21.50;82.30
43015;DHT22;28637;50.554;7.032;2023-07-22T10:41:19;21.20;81.60
43015;DHT22;28637;50.554;7.032;2023-07-22T10:46:34;21.50;81.80
43015;DHT22;28637;50.554;7.032;2023-07-22T10:51:36;21.80;81.90
43015;DHT22;28637;50.554;7.032;2023-07-22T10:56:37;22.00;82.60
43015;DHT22;28637;50.554;7.032;2023-07-22T11:01:40;22.20;81.30
43015;DHT22;28637;50.554;7.032;2023-07-22T11:11:44;22.50;81.10
43015;DHT22;28637;50.554;7.032;2023-07-22T11:16:46;22.50;81.30
43015;DHT22;28637;50.554;7.032;2023-07-22T11:21:48;22.70;81.30
43015;DHT22;28637;50.554;7.032;2023-07-22T11:26:49;23.00;82.30
43015;DHT22;28637;50.554;7.032;2023-07-22T11:31:51;22.90;78.30
43015;DHT22;28637;50.554;7.032;2023-07-22T11:36:53;23.00;81.70
43015;DHT22;28637;50.554;7.032;2023-07-22T11:41:55;23.10;81.70
43015;DHT22;28637;50.554;7.032;2023-07-22T11:47:00;23.30;78.60
43015;DHT22;28637;50.554;7.032;2023-07-22T11:52:05;23.30;77.50
43015;DHT22;28637;50.554;7.032;2023-07-22T11:57:20;23.10;76.40
43015;DHT22;28637;50.554;7.032;2023-07-22T12:02:25;23.20;76.40
43015;DHT22;28637;50.554;7.032;2023-07-22T12:07:36;23.00;75.80
43015;DHT22;28637;50.554;7.032;2023-07-22T12:12:38;23.30;75.30
43015;DHT22;28637;50.554;7.032;2023-07-22T12:17:59;23.40;75.40
43015;DHT22;28637;50.554;7.032;2023-07-22T12:23:00;23.60;76.30
43015;DHT22;28637;50.554;7.032;2023-07-22T12:28:01;23.90;76.50
43015;DHT22;28637;50.554;7.032;2023-07-22T12:33:01;24.00;75.00
43015;DHT22;28637;50.554;7.032;2023-07-22T12:38:02;23.90;74.80
43015;DHT22;28637;50.554;7.032;2023-07-22T12:43:03;24.00;74.50
43015;DHT22;28637;50.554;7.032;2023-07-22T12:48:03;23.60;73.80
43015;DHT22;28637;50.554;7.032;2023-07-22T12:53:05;23.30;74.10
43015;DHT22;28637;50.554;7.032;2023-07-22T12:58:06;23.50;74.30
43015;DHT22;28637;50.554;7.032;2023-07-22T13:03:07;23.60;73.00
43015;DHT22;28637;50.554;7.032;2023-07-22T13:08:07;24.10;73.10
43015;DHT22;28637;50.554;7.032;2023-07-22T13:13:08;24.10;73.20
43015;DHT22;28637;50.554;7.032;2023-07-22T13:18:09;24.00;74.00
43015;DHT22;28637;50.554;7.032;2023-07-22T13:23:09;24.40;71.70
43015;DHT22;28637;50.554;7.032;2023-07-22T13:28:10;24.80;74.20
43015;DHT22;28637;50.554;7.032;2023-07-22T13:33:11;24.60;74.10
43015;DHT22;28637;50.554;7.032;2023-07-22T13:38:12;24.70;73.50
43015;DHT22;28637;50.554;7.032;2023-07-22T13:43:12;24.50;73.70
43015;DHT22;28637;50.554;7.032;2023-07-22T13:48:13;24.90;73.30
43015;DHT22;28637;50.554;7.032;2023-07-22T13:53:13;24.60;71.80
43015;DHT22;28637;50.554;7.032;2023-07-22T13:58:14;24.80;72.90
43015;DHT22;28637;50.554;7.032;2023-07-22T14:03:15;24.60;74.20
43015;DHT22;28637;50.554;7.032;2023-07-22T14:08:15;25.00;73.70
43015;DHT22;28637;50.554;7.032;2023-07-22T14:13:16;25.20;70.60
43015;DHT22;28637;50.554;7.032;2023-07-22T14:18:18;24.70;70.20
43015;DHT22;28637;50.554;7.032;2023-07-22T14:23:19;25.00;74.90
43015;DHT22;28637;50.554;7.032;2023-07-22T14:28:20;24.70;72.60
43015;DHT22;28637;50.554;7.032;2023-07-22T14:33:20;25.10;72.00
43015;DHT22;28637;50.554;7.032;2023-07-22T14:38:21;25.20;71.00
43015;DHT22;28637;50.554;7.032;2023-07-22T14:43:22;25.20;72.70
43015;DHT22;28637;50.554;7.032;2023-07-22T14:48:23;25.00;72.00
43015;DHT22;28637;50.554;7.032;2023-07-22T14:53:23;25.10;73.60
43015;DHT22;28637;50.554;7.032;2023-07-22T14:58:24;25.20;73.10
43015;DHT22;28637;50.554;7.032;2023-07-22T15:03:24;25.60;75.50
43015;DHT22;28637;50.554;7.032;2023-07-22T15:08:25;25.60;71.70
43015;DHT22;28637;50.554;7.032;2023-07-22T15:13:26;25.00;72.40
43015;DHT22;28637;50.554;7.032;2023-07-22T15:18:26;25.20;70.70
43015;DHT22;28637;50.554;7.032;2023-07-22T15:23:27;25.20;74.50
43015;DHT22;28637;50.554;7.032;2023-07-22T15:28:28;25.20;73.40
43015;DHT22;28637;50.554;7.032;2023-07-22T15:33:28;25.20;73.60
43015;DHT22;28637;50.554;7.032;2023-07-22T15:38:29;24.70;71.30
43015;DHT22;28637;50.554;7.032;2023-07-22T15:43:31;25.20;74.00
43015;DHT22;28637;50.554;7.032;2023-07-22T15:48:32;25.40;71.40
43015;DHT22;28637;50.554;7.032;2023-07-22T15:53:33;24.90;72.00
43015;DHT22;28637;50.554;7.032;2023-07-22T15:58:34;24.80;72.40
43015;DHT22;28637;50.554;7.032;2023-07-22T16:03:35;24.20;72.80
43015;DHT22;28637;50.554;7.032;2023-07-22T16:08:37;24.00;74.80
43015;DHT22;28637;50.554;7.032;2023-07-22T16:13:37;24.10;73.50
43015;DHT22;28637;50.554;7.032;2023-07-22T16:18:38;24.10;73.80
43015;DHT22;28637;50.554;7.032;2023-07-22T16:23:38;24.30;73.80
43015;DHT22;28637;50.554;7.032;2023-07-22T16:28:39;24.80;75.60
43015;DHT22;28637;50.554;7.032;2023-07-22T16:33:40;24.10;74.50
43015;DHT22;28637;50.554;7.032;2023-07-22T16:38:40;24.20;74.50
43015;DHT22;28637;50.554;7.032;2023-07-22T16:43:41;24.60;76.30
43015;DHT22;28637;50.554;7.032;2023-07-22T16:48:42;24.60;73.60
43015;DHT22;28637;50.554;7.032;2023-07-22T16:53:43;23.70;75.50
43015;DHT22;28637;50.554;7.032;2023-07-22T16:58:43;23.80;74.60
43015;DHT22;28637;50.554;7.032;2023-07-22T17:03:44;23.90;75.30
43015;DHT22;28637;50.554;7.032;2023-07-22T17:08:45;23.30;75.00
43015;DHT22;28637;50.554;7.032;2023-07-22T17:13:46;23.40;76.90
43015;DHT22;28637;50.554;7.032;2023-07-22T17:18:47;23.50;76.40
43015;DHT22;28637;50.554;7.032;2023-07-22T17:23:48;23.40;75.90
43015;DHT22;28637;50.554;7.032;2023-07-22T17:28:48;23.10;77.20
43015;DHT22;28637;50.554;7.032;2023-07-22T17:33:49;22.90;78.10
43015;DHT22;28637;50.554;7.032;2023-07-22T17:38:50;22.70;77.90
43015;DHT22;28637;50.554;7.032;2023-07-22T17:43:50;22.60;78.60
43015;DHT22;28637;50.554;7.032;2023-07-22T17:48:51;22.50;78.80
43015;DHT22;28637;50.554;7.032;2023-07-22T17:53:52;22.30;79.30
43015;DHT22;28637;50.554;7.032;2023-07-22T17:58:52;22.00;80.00
43015;DHT22;28637;50.554;7.032;2023-07-22T18:03:53;22.00;80.90
43015;DHT22;28637;50.554;7.032;2023-07-22T18:08:54;21.70;80.60
43015;DHT22;28637;50.554;7.032;2023-07-22T18:19:04;21.50;82.30
43015;DHT22;28637;50.554;7.032;2023-07-22T18:24:05;21.40;83.30
43015;DHT22;28637;50.554;7.032;2023-07-22T18:29:06;21.30;83.00
43015;DHT22;28637;50.554;7.032;2023-07-22T18:34:06;21.30;83.30
43015;DHT22;28637;50.554;7.032;2023-07-22T18:39:07;21.30;84.00
43015;DHT22;28637;50.554;7.032;2023-07-22T18:44:08;21.20;83.10
43015;DHT22;28637;50.554;7.032;2023-07-22T18:49:09;21.10;84.10
43015;DHT22;28637;50.554;7.032;2023-07-22T18:54:10;21.00;85.70
43015;DHT22;28637;50.554;7.032;2023-07-22T18:59:11;21.00;86.20
43015;DHT22;28637;50.554;7.032;2023-07-22T19:04:11;20.90;88.90
43015;DHT22;28637;50.554;7.032;2023-07-22T19:09:12;20.90;89.50
43015;DHT22;28637;50.554;7.032;2023-07-22T19:14:13;20.80;90.40
43015;DHT22;28637;50.554;7.032;2023-07-22T19:19:13;20.70;90.80
43015;DHT22;28637;50.554;7.032;2023-07-22T19:24:14;20.50;91.60
43015;DHT22;28637;50.554;7.032;2023-07-22T19:29:15;20.30;92.70
43015;DHT22;28637;50.554;7.032;2023-07-22T19:34:16;20.10;94.40
43015;DHT22;28637;50.554;7.032;2023-07-22T19:39:17;20.00;95.80
43015;DHT22;28637;50.554;7.032;2023-07-22T19:44:17;19.90;96.50
43015;DHT22;28637;50.554;7.032;2023-07-22T19:49:18;19.70;97.40
43015;DHT22;28637;50.554;7.032;2023-07-22T19:54:19;19.50;97.80
43015;DHT22;28637;50.554;7.032;2023-07-22T19:59:19;19.50;98.60
43015;DHT22;28637;50.554;7.032;2023-07-22T20:04:20;19.30;99.50
43015;DHT22;28637;50.554;7.032;2023-07-22T20:09:20;19.20;99.90
43015;DHT22;28637;50.554;7.032;2023-07-22T20:14:22;19.10;99.90
43015;DHT22;28637;50.554;7.032;2023-07-22T20:19:22;18.90;99.90
43015;DHT22;28637;50.554;7.032;2023-07-22T20:24:23;18.90;99.90
43015;DHT22;28637;50.554;7.032;2023-07-22T20:29:24;18.80;99.90
43015;DHT22;28637;50.554;7.032;2023-07-22T20:34:25;18.60;99.90
43015;DHT22;28637;50.554;7.032;2023-07-22T20:39:25;18.40;99.90
43015;DHT22;28637;50.554;7.032;2023-07-22T20:44:26;18.20;99.90
43015;DHT22;28637;50.554;7.032;2023-07-22T20:49:26;18.00;99.90
43015;DHT22;28637;50.554;7.032;2023-07-22T20:54:27;17.90;99.90
43015;DHT22;28637;50.554;7.032;2023-07-22T20:59:28;17.60;99.90
43015;DHT22;28637;50.554;7.032;2023-07-22T21:04:29;17.30;99.90
43015;DHT22;28637;50.554;7.032;2023-07-22T21:09:30;17.20;99.90
43015;DHT22;28637;50.554;7.032;2023-07-22T21:14:31;17.00;99.90
43015;DHT22;28637;50.554;7.032;2023-07-22T21:19:32;16.80;99.90
43015;DHT22;28637;50.554;7.032;2023-07-22T21:24:33;16.70;99.90
43015;DHT22;28637;50.554;7.032;2023-07-22T21:29:33;16.70;99.90
43015;DHT22;28637;50.554;7.032;2023-07-22T21:34:34;16.60;99.90
43015;DHT22;28637;50.554;7.032;2023-07-22T21:39:35;16.60;99.90
43015;DHT22;28637;50.554;7.032;2023-07-22T21:44:36;16.50;99.90
43015;DHT22;28637;50.554;7.032;2023-07-22T21:49:37;16.50;99.90
43015;DHT22;28637;50.554;7.032;2023-07-22T21:54:38;16.50;99.90
43015;DHT22;28637;50.554;7.032;2023-07-22T21:59:38;16.30;99.90
43015;DHT22;28637;50.554;7.032;2023-07-22T22:04:40;16.30;99.90
43015;DHT22;28637;50.554;7.032;2023-07-22T22:09:42;16.40;99.90
43015;DHT22;28637;50.554;7.032;2023-07-22T22:14:42;16.50;99.90
43015;DHT22;28637;50.554;7.032;2023-07-22T22:19:44;16.50;99.90
43015;DHT22;28637;50.554;7.032;2023-07-22T22:24:45;16.50;99.90
43015;DHT22;28637;50.554;7.032;2023-07-22T22:29:45;16.50;99.90
43015;DHT22;28637;50.554;7.032;2023-07-22T22:34:46;16.60;99.90
43015;DHT22;28637;50.554;7.032;2023-07-22T22:39:47;16.60;99.90
43015;DHT22;28637;50.554;7.032;2023-07-22T22:44:47;16.60;99.90
43015;DHT22;28637;50.554;7.032;2023-07-22T22:49:49;16.60;99.90
43015;DHT22;28637;50.554;7.032;2023-07-22T22:54:50;16.60;99.90
43015;DHT22;28637;50.554;7.032;2023-07-22T22:59:51;16.60;99.90
43015;DHT22;28637;50.554;7.032;2023-07-22T23:04:52;16.60;99.90
43015;DHT22;28637;50.554;7.032;2023-07-22T23:09:52;16.60;99.90
43015;DHT22;28637;50.554;7.032;2023-07-22T23:14:53;16.70;99.90
43015;DHT22;28637;50.554;7.032;2023-07-22T23:19:55;16.70;99.90
43015;DHT22;28637;50.554;7.032;2023-07-22T23:24:55;16.60;99.90
43015;DHT22;28637;50.554;7.032;2023-07-22T23:29:56;16.60;99.90
43015;DHT22;28637;50.554;7.032;2023-07-22T23:34:58;16.70;99.90
43015;DHT22;28637;50.554;7.032;2023-07-22T23:40:00;16.70;99.90
43015;DHT22;28637;50.554;7.032;2023-07-22T23:45:00;16.80;99.90
43015;DHT22;28637;50.554;7.032;2023-07-22T23:50:01;17.00;99.90
43015;DHT22;28637;50.554;7.032;2023-07-22T23:55:02;17.20;99.90
